Time;durP1;ratioP1;P1;durP2;ratioP2;P2;SDS_P1;SDS_P2;PMS_P1;PMS_P2;Temp;Humidity;BMP_temperature;BMP_pressure;BME280_temperature;BME280_humidity;BME280_pressure;Samples;Min_cycle;Max_cycle;Signal;HPM_P1;HPM_P2
2024/01/31 00:00:13;;;;;;;;;;;5.50;99.90;;;;;;5024967;28;19932;-87
2024/01/31 00:02:39;;;;;;;;;;;5.40;99.90;;;;;;5019730;28;19930;-87
2024/01/31 00:05:05;;;;;;;;;;;5.50;99.90;;;;;;5011457;28;19930;-86
2024/01/31 00:07:31;;;;;;;;;;;5.50;99.90;;;;;;5011454;28;19925;-86
2024/01/31 00:09:56;;;;;;;;;;;5.50;99.90;;;;;;5018430;28;20383;-87
2024/01/31 00:12:22;;;;;;;;;;;6.50;99.90;;;;;;5033024;28;19979;-86
2024/01/31 00:14:47;;;;;;;;;;;6.30;99.90;;;;;;5017705;28;20052;-86
2024/01/31 00:17:13;;;;;;;;;;;5.50;99.90;;;;;;5031343;28;19925;-87
2024/01/31 00:19:38;;;;;;;;;;;5.80;99.90;;;;;;5021062;28;19930;-87
2024/01/31 00:22:04;;;;;;;;;;;5.50;99.90;;;;;;5011203;28;20067;-86
2024/01/31 00:24:29;;;;;;;;;;;5.60;99.90;;;;;;5011718;28;19926;-87
2024/01/31 00:26:55;;;;;;;;;;;5.60;99.90;;;;;;5013300;28;19925;-87
2024/01/31 00:29:21;;;;;;;;;;;5.60;99.90;;;;;;5010889;28;19926;-86
2024/01/31 00:31:46;;;;;;;;;;;5.50;99.90;;;;;;5012961;28;19949;-86
2024/01/31 00:34:12;;;;;;;;;;;5.50;99.90;;;;;;5011590;28;19925;-85
2024/01/31 00:36:37;;;;;;;;;;;5.50;99.90;;;;;;5012182;28;20376;-85
2024/01/31 00:39:03;;;;;;;;;;;5.40;99.90;;;;;;5011349;28;19925;-85
2024/01/31 00:41:30;;;;;;;;;;;5.40;99.90;;;;;;5012014;28;19929;-85
2024/01/31 00:43:56;;;;;;;;;;;5.30;99.90;;;;;;5008681;28;20325;-85
2024/01/31 00:46:21;;;;;;;;;;;5.30;99.90;;;;;;5025101;28;19933;-86
2024/01/31 00:48:47;;;;;;;;;;;5.20;99.90;;;;;;5031618;28;19925;-86
2024/01/31 00:51:12;;;;;;;;;;;5.20;99.90;;;;;;5031740;28;19929;-85
2024/01/31 00:53:38;;;;;;;;;;;5.10;99.90;;;;;;5031315;28;19925;-86
2024/01/31 00:56:04;;;;;;;;;;;5.10;99.90;;;;;;5031842;28;20288;-86
2024/01/31 00:58:29;;;;;;;;;;;5.00;99.90;;;;;;5030583;28;19925;-86
2024/01/31 01:00:55;;;;;;;;;;;4.90;99.90;;;;;;5032725;28;20019;-86
2024/01/31 01:03:20;;;;;;;;;;;4.90;99.90;;;;;;5028893;28;20433;-85
2024/01/31 01:05:45;;;;;;;;;;;4.90;99.90;;;;;;5011036;28;19925;-86
2024/01/31 01:08:11;;;;;;;;;;;4.80;99.90;;;;;;5011200;28;19926;-86
2024/01/31 01:10:36;;;;;;;;;;;4.70;99.90;;;;;;5012887;28;20289;-86
2024/01/31 01:13:02;;;;;;;;;;;4.70;99.90;;;;;;5010459;28;19932;-85
2024/01/31 01:15:27;;;;;;;;;;;4.60;99.90;;;;;;5032383;28;19971;-86
2024/01/31 01:17:53;;;;;;;;;;;4.60;99.90;;;;;;5033812;28;19932;-85
2024/01/31 01:20:18;;;;;;;;;;;4.50;99.90;;;;;;5033957;28;19933;-85
2024/01/31 01:22:45;;;;;;;;;;;4.50;99.90;;;;;;5014957;28;20412;-85
2024/01/31 01:25:10;;;;;;;;;;;4.50;99.90;;;;;;5015318;28;19969;-85
2024/01/31 01:27:36;;;;;;;;;;;4.50;99.90;;;;;;5014688;28;19921;-85
2024/01/31 01:30:01;;;;;;;;;;;4.50;99.90;;;;;;5015558;28;19926;-86
2024/01/31 01:32:27;;;;;;;;;;;4.60;99.90;;;;;;5014001;28;19941;-85
2024/01/31 01:34:52;;;;;;;;;;;4.60;99.90;;;;;;5016001;28;19975;-85
2024/01/31 01:37:18;;;;;;;;;;;4.60;99.90;;;;;;5014200;28;19934;-85
2024/01/31 01:39:45;;;;;;;;;;;4.60;99.90;;;;;;5013818;28;19933;-84
2024/01/31 01:42:11;;;;;;;;;;;4.50;99.90;;;;;;5014277;28;19926;-85
2024/01/31 01:44:39;;;;;;;;;;;4.50;99.90;;;;;;5014560;28;19926;-85
2024/01/31 01:47:05;;;;;;;;;;;4.50;99.90;;;;;;5014535;28;19949;-85
2024/01/31 01:49:32;;;;;;;;;;;4.70;99.90;;;;;;5016273;28;19930;-85
2024/01/31 01:51:57;;;;;;;;;;;4.60;99.90;;;;;;5029742;28;20300;-85
2024/01/31 01:54:23;;;;;;;;;;;4.60;99.90;;;;;;5032748;28;19925;-85
2024/01/31 01:56:49;;;;;;;;;;;4.70;99.90;;;;;;5033913;28;20024;-85
2024/01/31 01:59:15;;;;;;;;;;;4.70;99.90;;;;;;5035211;28;19948;-85
2024/01/31 02:01:41;;;;;;;;;;;4.70;99.90;;;;;;5033122;28;20312;-85
2024/01/31 02:04:07;;;;;;;;;;;4.80;99.90;;;;;;5035136;28;19932;-86
2024/01/31 02:06:33;;;;;;;;;;;4.70;99.90;;;;;;5033781;28;19932;-86
2024/01/31 02:08:59;;;;;;;;;;;4.70;99.90;;;;;;5034121;28;19929;-86
2024/01/31 02:11:24;;;;;;;;;;;4.60;99.90;;;;;;5033508;28;20019;-86
2024/01/31 02:13:50;;;;;;;;;;;4.60;99.90;;;;;;5033569;28;19925;-86
2024/01/31 02:16:15;;;;;;;;;;;4.60;99.90;;;;;;5032476;28;20292;-87
2024/01/31 02:18:41;;;;;;;;;;;4.60;99.90;;;;;;5022212;28;19926;-86
2024/01/31 02:21:06;;;;;;;;;;;4.70;99.90;;;;;;5013157;28;19930;-85
2024/01/31 02:23:32;;;;;;;;;;;4.70;99.90;;;;;;5015349;28;19980;-86
2024/01/31 02:25:57;;;;;;;;;;;4.70;99.90;;;;;;5013099;28;19932;-86
2024/01/31 02:28:23;;;;;;;;;;;4.80;99.90;;;;;;5023687;28;19932;-86
2024/01/31 02:30:48;;;;;;;;;;;4.80;99.90;;;;;;5020406;28;20384;-86
2024/01/31 02:33:14;;;;;;;;;;;4.80;99.90;;;;;;5013873;28;19925;-86
2024/01/31 02:35:39;;;;;;;;;;;4.60;99.90;;;;;;5013706;28;19926;-85
2024/01/31 02:38:05;;;;;;;;;;;4.80;99.90;;;;;;5014443;28;19983;-85
2024/01/31 02:40:31;;;;;;;;;;;4.80;99.90;;;;;;5014841;28;19926;-85
2024/01/31 02:42:57;;;;;;;;;;;5.70;99.90;;;;;;5013115;28;19932;-86
2024/01/31 02:45:27;;;;;;;;;;;4.80;99.90;;;;;;5014032;28;19929;-86
2024/01/31 02:47:53;;;;;;;;;;;4.80;99.90;;;;;;5013561;28;19932;-86
2024/01/31 02:50:18;;;;;;;;;;;5.20;99.90;;;;;;5012170;28;19930;-85
2024/01/31 02:52:44;;;;;;;;;;;4.80;99.90;;;;;;5014822;28;20293;-85
2024/01/31 02:55:09;;;;;;;;;;;4.70;99.90;;;;;;5032230;28;20289;-85
2024/01/31 02:57:35;;;;;;;;;;;4.70;99.90;;;;;;5033329;28;20063;-86
2024/01/31 03:00:01;;;;;;;;;;;4.70;99.90;;;;;;5030713;28;19925;-86
2024/01/31 03:02:26;;;;;;;;;;;4.70;99.90;;;;;;5032900;28;19925;-86
2024/01/31 03:04:52;;;;;;;;;;;4.70;99.90;;;;;;5015439;28;19929;-86
2024/01/31 03:07:18;;;;;;;;;;;4.70;99.90;;;;;;5012547;28;19932;-87
2024/01/31 03:09:44;;;;;;;;;;;4.80;99.90;;;;;;5013041;28;19968;-86
2024/01/31 03:12:09;;;;;;;;;;;4.80;99.90;;;;;;5013378;28;19968;-86
2024/01/31 03:14:35;;;;;;;;;;;4.80;99.90;;;;;;5027439;28;19979;-85
2024/01/31 03:17:00;;;;;;;;;;;5.50;99.90;;;;;;5032171;28;19925;-86
2024/01/31 03:19:30;;;;;;;;;;;4.80;99.90;;;;;;5033055;28;19925;-86
2024/01/31 03:21:55;;;;;;;;;;;4.80;99.90;;;;;;5034031;28;19978;-86
2024/01/31 03:24:21;;;;;;;;;;;4.80;99.90;;;;;;5031860;28;19929;-86
2024/01/31 03:26:47;;;;;;;;;;;4.80;99.90;;;;;;5031522;28;20273;-85
2024/01/31 03:29:12;;;;;;;;;;;4.80;99.90;;;;;;5031397;28;20384;-86
2024/01/31 03:31:38;;;;;;;;;;;4.90;99.90;;;;;;5032581;28;19932;-86
2024/01/31 03:34:04;;;;;;;;;;;4.90;99.90;;;;;;5012816;28;20360;-86
2024/01/31 03:36:30;;;;;;;;;;;4.80;99.90;;;;;;5013577;28;19925;-86
2024/01/31 03:38:58;;;;;;;;;;;4.80;99.90;;;;;;5011668;28;19926;-85
2024/01/31 03:41:24;;;;;;;;;;;4.70;99.90;;;;;;5013608;28;19922;-85
2024/01/31 03:43:50;;;;;;;;;;;4.70;99.90;;;;;;5012116;28;19933;-85
2024/01/31 03:46:15;;;;;;;;;;;4.70;99.90;;;;;;5012428;28;20328;-85
2024/01/31 03:48:41;;;;;;;;;;;4.60;99.90;;;;;;5013886;28;19933;-86
2024/01/31 03:51:16;;;;;;;;;;;4.70;99.90;;;;;;5011668;28;20396;-86
2024/01/31 03:53:42;;;;;;;;;;;4.60;99.90;;;;;;5022851;28;19925;-85
2024/01/31 03:56:07;;;;;;;;;;;4.60;99.90;;;;;;5032486;28;20296;-86
2024/01/31 03:58:33;;;;;;;;;;;4.60;99.90;;;;;;5031718;28;19925;-86
2024/01/31 04:00:58;;;;;;;;;;;4.60;99.90;;;;;;5031037;28;19935;-86
2024/01/31 04:03:24;;;;;;;;;;;4.50;99.90;;;;;;5032764;28;20331;-86
2024/01/31 04:05:49;;;;;;;;;;;4.60;99.90;;;;;;5031977;28;19925;-85
2024/01/31 04:08:15;;;;;;;;;;;4.50;99.90;;;;;;5012931;28;19926;-85
2024/01/31 04:10:40;;;;;;;;;;;4.50;99.90;;;;;;5012296;28;20353;-86
2024/01/31 04:13:06;;;;;;;;;;;4.50;99.90;;;;;;5011662;28;20461;-85
2024/01/31 04:15:31;;;;;;;;;;;4.50;99.90;;;;;;5011577;28;20301;-85
2024/01/31 04:17:57;;;;;;;;;;;4.50;99.90;;;;;;5011686;28;19929;-85
2024/01/31 04:20:23;;;;;;;;;;;4.50;99.90;;;;;;5024428;28;19982;-86
2024/01/31 04:22:48;;;;;;;;;;;4.50;99.90;;;;;;5026927;28;19929;-87
2024/01/31 04:25:14;;;;;;;;;;;4.50;99.90;;;;;;5021570;28;19931;-87
2024/01/31 04:27:40;;;;;;;;;;;4.50;99.90;;;;;;5031012;28;19925;-86
2024/01/31 04:30:08;;;;;;;;;;;4.50;99.90;;;;;;5020197;28;20414;-87
2024/01/31 04:32:33;;;;;;;;;;;4.50;99.90;;;;;;5031611;28;19933;-87
2024/01/31 04:34:59;;;;;;;;;;;4.50;99.90;;;;;;5014289;28;19929;-87
2024/01/31 04:37:24;;;;;;;;;;;4.40;99.90;;;;;;5017427;28;20442;-87
2024/01/31 04:39:51;;;;;;;;;;;4.40;99.90;;;;;;5031946;28;19980;-87
2024/01/31 04:42:17;;;;;;;;;;;4.30;99.90;;;;;;5024125;28;20385;-86
2024/01/31 04:44:45;;;;;;;;;;;4.30;99.90;;;;;;5012933;28;19926;-86
2024/01/31 04:47:11;;;;;;;;;;;4.20;99.90;;;;;;5016150;28;19961;-87
2024/01/31 04:49:36;;;;;;;;;;;4.10;99.90;;;;;;5026718;28;20344;-87
2024/01/31 04:52:02;;;;;;;;;;;4.10;99.90;;;;;;5024606;28;19971;-87
2024/01/31 04:54:27;;;;;;;;;;;4.00;99.90;;;;;;5023120;28;19925;-87
2024/01/31 04:56:53;;;;;;;;;;;3.90;99.90;;;;;;5014586;28;20028;-87
2024/01/31 04:59:19;;;;;;;;;;;3.80;99.90;;;;;;5016630;28;20274;-87
2024/01/31 05:01:45;;;;;;;;;;;3.70;99.90;;;;;;5017763;28;19926;-87
2024/01/31 05:04:10;;;;;;;;;;;3.60;99.90;;;;;;5025539;28;19979;-87
2024/01/31 05:06:36;;;;;;;;;;;3.50;99.90;;;;;;5015261;28;20405;-88
2024/01/31 05:09:03;;;;;;;;;;;3.50;99.90;;;;;;5015388;28;19926;-87
2024/01/31 05:11:28;;;;;;;;;;;3.40;99.90;;;;;;5016272;28;19925;-87
2024/01/31 05:13:54;;;;;;;;;;;3.30;99.90;;;;;;5028304;28;19932;-87
2024/01/31 05:16:19;;;;;;;;;;;3.30;99.90;;;;;;5020971;28;20068;-87
2024/01/31 05:18:45;;;;;;;;;;;3.30;99.90;;;;;;5034417;28;19925;-91
2024/01/31 05:21:11;;;;;;;;;;;3.20;99.90;;;;;;5056031;28;20066;-89
2024/01/31 05:23:37;;;;;;;;;;;3.20;99.90;;;;;;5028773;28;19925;-85
2024/01/31 05:26:08;;;;;;;;;;;3.10;99.90;;;;;;5024863;28;20359;-84
2024/01/31 05:28:34;;;;;;;;;;;3.10;99.90;;;;;;5014856;28;20012;-85
2024/01/31 05:31:00;;;;;;;;;;;3.00;99.90;;;;;;5030665;28;19972;-83
2024/01/31 05:33:25;;;;;;;;;;;3.00;99.90;;;;;;5015451;28;19929;-84
2024/01/31 05:35:51;;;;;;;;;;;3.00;99.90;;;;;;5023908;28;19977;-83
2024/01/31 05:38:16;;;;;;;;;;;3.00;99.90;;;;;;5022738;28;19932;-84
2024/01/31 05:40:44;;;;;;;;;;;3.00;99.90;;;;;;5024864;28;19925;-84
2024/01/31 05:43:10;;;;;;;;;;;3.60;99.90;;;;;;5024363;28;20373;-83
2024/01/31 05:45:35;;;;;;;;;;;2.90;99.90;;;;;;5024215;28;19932;-84
2024/01/31 05:48:02;;;;;;;;;;;2.80;99.90;;;;;;5026739;28;20309;-85
2024/01/31 05:50:27;;;;;;;;;;;2.80;99.90;;;;;;5028746;28;20019;-84
2024/01/31 05:52:53;;;;;;;;;;;2.70;99.90;;;;;;5033010;28;20019;-85
2024/01/31 05:55:18;;;;;;;;;;;2.70;99.90;;;;;;5035137;28;20005;-85
2024/01/31 05:57:48;;;;;;;;;;;2.50;99.90;;;;;;5035088;28;19947;-84
2024/01/31 06:00:14;;;;;;;;;;;2.60;99.90;;;;;;5032585;28;19929;-85
2024/01/31 06:02:39;;;;;;;;;;;2.50;99.90;;;;;;5033286;28;19975;-85
2024/01/31 06:05:05;;;;;;;;;;;2.50;99.90;;;;;;5034146;28;19932;-85
2024/01/31 06:07:30;;;;;;;;;;;2.60;99.90;;;;;;5033588;28;19928;-88
2024/01/31 06:09:56;;;;;;;;;;;2.60;99.90;;;;;;5034190;28;19925;-86
2024/01/31 06:12:21;;;;;;;;;;;2.60;99.90;;;;;;5033621;28;19925;-88
2024/01/31 06:14:47;;;;;;;;;;;2.50;99.90;;;;;;5033511;28;19975;-81
2024/01/31 06:17:14;;;;;;;;;;;2.50;99.90;;;;;;5029654;28;19925;-78
2024/01/31 06:19:40;;;;;;;;;;;2.60;99.90;;;;;;5033646;28;20327;-81
2024/01/31 06:22:07;;;;;;;;;;;2.60;99.90;;;;;;5032524;28;19925;-82
2024/01/31 06:24:32;;;;;;;;;;;2.60;99.90;;;;;;5035014;28;19927;-81
2024/01/31 06:26:58;;;;;;;;;;;2.70;99.90;;;;;;5033416;28;19932;-90
2024/01/31 06:29:24;;;;;;;;;;;2.70;99.90;;;;;;5033370;28;19928;-84
2024/01/31 06:31:51;;;;;;;;;;;2.70;99.90;;;;;;5033838;28;19933;-81
2024/01/31 06:34:17;;;;;;;;;;;2.70;99.90;;;;;;5020328;28;19968;-86
2024/01/31 06:36:43;;;;;;;;;;;2.80;99.90;;;;;;5021807;28;19929;-81
2024/01/31 06:39:12;;;;;;;;;;;2.90;99.90;;;;;;5031136;28;20032;-87
2024/01/31 06:41:49;;;;;;;;;;;2.90;99.90;;;;;;5027820;28;20007;-86
2024/01/31 06:44:15;;;;;;;;;;;3.00;99.90;;;;;;5015931;28;20359;-80
2024/01/31 06:46:45;;;;;;;;;;;3.10;99.90;;;;;;5013337;28;20300;-80
2024/01/31 06:49:10;;;;;;;;;;;3.10;99.90;;;;;;5012278;28;19929;-81
2024/01/31 06:51:36;;;;;;;;;;;3.30;99.90;;;;;;5013335;28;19975;-80
2024/01/31 06:54:01;;;;;;;;;;;3.40;99.90;;;;;;5012753;28;20666;-82
2024/01/31 06:56:27;;;;;;;;;;;3.50;99.90;;;;;;5012444;28;19984;-84
2024/01/31 06:58:54;;;;;;;;;;;3.50;99.90;;;;;;5013632;28;20369;-81
2024/01/31 07:01:20;;;;;;;;;;;3.60;99.90;;;;;;5024808;28;19933;-83
2024/01/31 07:03:46;;;;;;;;;;;3.70;99.90;;;;;;5012914;28;20329;-82
2024/01/31 07:06:12;;;;;;;;;;;3.80;99.90;;;;;;5012748;28;19975;-88
2024/01/31 07:08:38;;;;;;;;;;;3.80;99.90;;;;;;5014561;28;19929;-81
2024/01/31 07:11:08;;;;;;;;;;;3.80;99.90;;;;;;5012198;28;20397;-81
2024/01/31 07:13:34;;;;;;;;;;;3.90;99.90;;;;;;5013885;28;20389;-85
2024/01/31 07:16:00;;;;;;;;;;;3.90;99.90;;;;;;5012721;28;19937;-84
2024/01/31 07:18:25;;;;;;;;;;;3.90;99.90;;;;;;5012059;28;19948;-83
2024/01/31 07:20:51;;;;;;;;;;;4.50;99.90;;;;;;5024505;28;19932;-79
2024/01/31 07:23:17;;;;;;;;;;;4.00;99.90;;;;;;5042608;28;20083;-81
2024/01/31 07:25:42;;;;;;;;;;;4.00;99.90;;;;;;5016981;28;19951;-80
2024/01/31 07:28:08;;;;;;;;;;;4.60;99.90;;;;;;5031373;28;19932;-81
2024/01/31 07:30:33;;;;;;;;;;;4.60;99.90;;;;;;5032773;28;19933;-81
2024/01/31 07:32:59;;;;;;;;;;;4.90;99.90;;;;;;5028994;28;19936;-84
2024/01/31 07:35:25;;;;;;;;;;;4.20;99.90;;;;;;5022034;28;19932;-82
2024/01/31 07:37:54;;;;;;;;;;;5.30;99.90;;;;;;5032449;28;20419;-82
2024/01/31 07:40:20;;;;;;;;;;;4.30;99.90;;;;;;5016620;28;19937;-87
2024/01/31 07:42:45;;;;;;;;;;;4.30;99.90;;;;;;5013832;28;20293;-86
2024/01/31 07:45:11;;;;;;;;;;;3.20;99.90;;;;;;5011725;28;19969;-84
2024/01/31 07:47:37;;;;;;;;;;;4.40;99.90;;;;;;5010799;28;20399;-87
2024/01/31 07:50:04;;;;;;;;;;;4.50;99.90;;;;;;5010958;28;19932;-89
2024/01/31 07:52:30;;;;;;;;;;;4.50;99.90;;;;;;5026365;28;19926;-81
2024/01/31 07:54:55;;;;;;;;;;;4.50;99.90;;;;;;5030290;28;19925;-88
2024/01/31 07:57:21;;;;;;;;;;;4.50;99.90;;;;;;5030199;28;19925;-81
2024/01/31 07:59:47;;;;;;;;;;;4.60;99.90;;;;;;5029705;28;20297;-84
2024/01/31 08:02:12;;;;;;;;;;;4.60;99.90;;;;;;5033029;28;19925;-87
2024/01/31 08:04:38;;;;;;;;;;;4.70;99.90;;;;;;5024664;28;19929;-81
2024/01/31 08:07:03;;;;;;;;;;;4.70;99.90;;;;;;5030235;28;19931;-81
2024/01/31 08:09:29;;;;;;;;;;;4.70;99.90;;;;;;5031832;28;20295;-81
2024/01/31 08:11:55;;;;;;;;;;;4.80;99.90;;;;;;5031863;28;19972;-81
2024/01/31 08:14:21;;;;;;;;;;;4.80;99.90;;;;;;5030362;28;19933;-81
2024/01/31 08:16:49;;;;;;;;;;;4.80;99.90;;;;;;5031536;28;19925;-81
2024/01/31 08:19:15;;;;;;;;;;;4.80;99.90;;;;;;5031483;28;20379;-81
2024/01/31 08:21:41;;;;;;;;;;;4.80;99.90;;;;;;5030722;28;19932;-81
2024/01/31 08:24:09;;;;;;;;;;;4.90;99.90;;;;;;5030704;28;20358;-82
2024/01/31 08:26:35;;;;;;;;;;;4.90;99.90;;;;;;5032774;28;19925;-81
2024/01/31 08:29:00;;;;;;;;;;;4.90;99.90;;;;;;5014242;28;19979;-81
2024/01/31 08:31:26;;;;;;;;;;;5.00;99.90;;;;;;5012875;28;19980;-81
2024/01/31 08:33:51;;;;;;;;;;;5.00;99.90;;;;;;5013156;28;19973;-81
2024/01/31 08:36:17;;;;;;;;;;;5.00;99.90;;;;;;5010704;28;19979;-82
2024/01/31 08:38:43;;;;;;;;;;;5.50;99.90;;;;;;5011639;28;19925;-82
2024/01/31 08:41:10;;;;;;;;;;;5.10;99.90;;;;;;5010576;28;20024;-81
2024/01/31 08:43:36;;;;;;;;;;;5.10;99.90;;;;;;5019972;28;20409;-81
2024/01/31 08:46:02;;;;;;;;;;;5.10;99.90;;;;;;5011242;28;19926;-82
2024/01/31 08:48:27;;;;;;;;;;;5.20;99.90;;;;;;5016360;28;20361;-82
2024/01/31 08:50:53;;;;;;;;;;;5.20;99.90;;;;;;5023098;28;19928;-80
2024/01/31 08:53:18;;;;;;;;;;;5.20;99.90;;;;;;5022983;28;19977;-81
2024/01/31 08:55:44;;;;;;;;;;;5.30;99.90;;;;;;5028416;28;19925;-80
2024/01/31 08:58:09;;;;;;;;;;;5.30;99.90;;;;;;5029233;28;20068;-80
2024/01/31 09:00:35;;;;;;;;;;;5.40;99.90;;;;;;5031299;28;19948;-80
2024/01/31 09:03:00;;;;;;;;;;;5.50;99.90;;;;;;5029953;28;19925;-81
2024/01/31 09:05:27;;;;;;;;;;;5.50;99.90;;;;;;5022772;28;19929;-80
2024/01/31 09:07:53;;;;;;;;;;;5.70;99.90;;;;;;5009586;28;20301;-80
2024/01/31 09:10:19;;;;;;;;;;;5.70;99.90;;;;;;5008732;28;19933;-80
2024/01/31 09:12:44;;;;;;;;;;;6.10;99.90;;;;;;5009374;28;19931;-80
2024/01/31 09:15:10;;;;;;;;;;;5.70;99.90;;;;;;5010176;28;19929;-80
2024/01/31 09:17:35;;;;;;;;;;;5.80;99.90;;;;;;5008490;28;19925;-80
2024/01/31 09:20:01;;;;;;;;;;;5.80;99.90;;;;;;5012128;28;19933;-80
2024/01/31 09:22:27;;;;;;;;;;;5.70;99.90;;;;;;5021805;28;19925;-80
2024/01/31 09:24:52;;;;;;;;;;;6.80;99.90;;;;;;5030635;28;19932;-80
2024/01/31 09:27:19;;;;;;;;;;;5.80;99.90;;;;;;5030567;28;20481;-80
2024/01/31 09:29:46;;;;;;;;;;;5.90;99.90;;;;;;5029264;28;20333;-80
2024/01/31 09:32:14;;;;;;;;;;;6.60;99.90;;;;;;5029812;28;19964;-80
2024/01/31 09:34:40;;;;;;;;;;;5.80;99.90;;;;;;5031234;28;19929;-80
2024/01/31 09:37:06;;;;;;;;;;;5.80;99.90;;;;;;5014831;28;19936;-80
2024/01/31 09:39:32;;;;;;;;;;;6.10;99.90;;;;;;5020119;28;19925;-80
2024/01/31 09:41:57;;;;;;;;;;;5.80;99.90;;;;;;5031144;28;19925;-80
2024/01/31 09:44:23;;;;;;;;;;;5.90;99.90;;;;;;5016813;28;19926;-80
2024/01/31 09:46:51;;;;;;;;;;;6.70;99.90;;;;;;5014100;28;19925;-80
2024/01/31 09:49:16;;;;;;;;;;;6.00;99.90;;;;;;5017629;28;19932;-80
2024/01/31 09:51:42;;;;;;;;;;;6.10;99.90;;;;;;5033749;28;19925;-80
2024/01/31 09:54:08;;;;;;;;;;;6.40;99.90;;;;;;5034354;28;19925;-80
2024/01/31 09:56:34;;;;;;;;;;;6.20;99.90;;;;;;5034008;28;19960;-81
2024/01/31 09:59:00;;;;;;;;;;;6.30;99.90;;;;;;5033290;28;19929;-81
2024/01/31 10:01:29;;;;;;;;;;;7.00;99.90;;;;;;5033815;28;19932;-81
2024/01/31 10:03:57;;;;;;;;;;;6.40;99.90;;;;;;5034260;28;20272;-81
2024/01/31 10:06:26;;;;;;;;;;;6.40;99.90;;;;;;5014543;28;19933;-81
2024/01/31 10:08:52;;;;;;;;;;;6.50;99.90;;;;;;5014291;28;19926;-81
2024/01/31 10:11:17;;;;;;;;;;;6.40;99.90;;;;;;5014166;28;20015;-81
2024/01/31 10:13:43;;;;;;;;;;;6.40;99.90;;;;;;5013266;28;19926;-81
2024/01/31 10:16:08;;;;;;;;;;;6.50;99.90;;;;;;5013583;28;19983;-81
2024/01/31 10:18:34;;;;;;;;;;;6.50;99.90;;;;;;5013902;28;19989;-80
2024/01/31 10:21:01;;;;;;;;;;;7.50;99.90;;;;;;5012972;28;20349;-80
2024/01/31 10:23:26;;;;;;;;;;;7.30;99.90;;;;;;5013816;28;20289;-80
2024/01/31 10:25:52;;;;;;;;;;;6.60;99.90;;;;;;5014182;28;19925;-79
2024/01/31 10:28:20;;;;;;;;;;;6.40;99.90;;;;;;5012606;28;20452;-79
2024/01/31 10:30:45;;;;;;;;;;;6.40;99.90;;;;;;5014832;28;19925;-80
2024/01/31 10:33:15;;;;;;;;;;;6.40;99.90;;;;;;5013232;28;19925;-80
2024/01/31 10:35:45;;;;;;;;;;;6.50;99.90;;;;;;5015430;28;20377;-80
2024/01/31 10:38:12;;;;;;;;;;;6.50;99.90;;;;;;5026203;28;19925;-79
2024/01/31 10:40:39;;;;;;;;;;;6.50;99.90;;;;;;5014323;28;19926;-79
2024/01/31 10:43:05;;;;;;;;;;;7.70;99.90;;;;;;5012984;28;20012;-79
2024/01/31 10:45:34;;;;;;;;;;;6.90;99.90;;;;;;5013467;28;19926;-81
2024/01/31 10:48:00;;;;;;;;;;;6.60;99.90;;;;;;5011363;28;19929;-85
2024/01/31 10:50:25;;;;;;;;;;;6.50;99.90;;;;;;5025693;28;19925;-81
2024/01/31 10:52:53;;;;;;;;;;;6.50;99.90;;;;;;5032723;28;20447;-83
2024/01/31 10:55:19;;;;;;;;;;;6.50;99.90;;;;;;5032006;28;20404;-78
2024/01/31 10:57:45;;;;;;;;;;;6.60;99.90;;;;;;5032058;28;19925;-83
2024/01/31 11:00:21;;;;;;;;;;;7.30;99.90;;;;;;5029636;28;19932;-81
2024/01/31 11:02:46;;;;;;;;;;;6.50;99.90;;;;;;5012443;28;19926;-80
2024/01/31 11:05:13;;;;;;;;;;;6.60;99.90;;;;;;5013064;28;20305;-80
2024/01/31 11:07:45;;;;;;;;;;;6.60;99.90;;;;;;5014324;28;19949;-80
2024/01/31 11:10:18;;;;;;;;;;;6.50;99.90;;;;;;5011767;28;19925;-80
2024/01/31 11:12:54;;;;;;;;;;;6.50;99.90;;;;;;5012987;28;19999;-83
2024/01/31 11:15:35;;;;;;;;;;;6.60;99.90;;;;;;5012741;28;19929;-83
2024/01/31 11:18:01;;;;;;;;;;;6.60;99.90;;;;;;5012672;28;19969;-78
2024/01/31 11:20:27;;;;;;;;;;;7.00;99.90;;;;;;5014050;28;19971;-77
2024/01/31 11:22:52;;;;;;;;;;;6.60;99.90;;;;;;5013497;28;19925;-77
2024/01/31 11:25:26;;;;;;;;;;;7.70;99.90;;;;;;5012794;28;20380;-76
2024/01/31 11:27:52;;;;;;;;;;;6.70;99.90;;;;;;5012381;28;19925;-78
2024/01/31 11:30:22;;;;;;;;;;;7.30;99.90;;;;;;5027622;28;19925;-77
2024/01/31 11:32:48;;;;;;;;;;;6.70;99.90;;;;;;5032742;28;19925;-76
2024/01/31 11:35:13;;;;;;;;;;;7.30;99.90;;;;;;5031964;28;19932;-77
2024/01/31 11:37:39;;;;;;;;;;;6.80;99.90;;;;;;5031301;28;20032;-78
2024/01/31 11:40:06;;;;;;;;;;;6.60;99.90;;;;;;5013944;28;20408;-78
2024/01/31 11:42:35;;;;;;;;;;;6.60;99.90;;;;;;5012534;28;19925;-79
2024/01/31 11:45:01;;;;;;;;;;;6.90;99.90;;;;;;5020274;28;20404;-77
2024/01/31 11:47:27;;;;;;;;;;;6.80;99.90;;;;;;5020714;28;20296;-79
2024/01/31 11:49:59;;;;;;;;;;;7.20;99.90;;;;;;5033377;28;19925;-79
2024/01/31 11:52:25;;;;;;;;;;;6.70;99.90;;;;;;5031507;28;20296;-79
2024/01/31 11:54:50;;;;;;;;;;;6.70;99.90;;;;;;5032093;28;19925;-79
2024/01/31 11:57:16;;;;;;;;;;;6.90;99.90;;;;;;5029264;28;19932;-78
2024/01/31 11:59:42;;;;;;;;;;;7.30;99.90;;;;;;5031370;28;19925;-78
2024/01/31 12:02:08;;;;;;;;;;;6.70;99.90;;;;;;5030952;28;20316;-79
2024/01/31 12:04:34;;;;;;;;;;;6.70;99.90;;;;;;5032090;28;19936;-79
2024/01/31 12:07:06;;;;;;;;;;;8.00;99.90;;;;;;5030835;28;19929;-79
2024/01/31 12:09:34;;;;;;;;;;;6.70;99.90;;;;;;5031521;28;20312;-79
2024/01/31 12:12:00;;;;;;;;;;;6.80;99.90;;;;;;5022024;28;20470;-79
2024/01/31 12:14:28;;;;;;;;;;;6.80;99.90;;;;;;5012259;28;19972;-79
2024/01/31 12:16:54;;;;;;;;;;;7.30;99.90;;;;;;5011852;28;19931;-78
2024/01/31 12:19:19;;;;;;;;;;;6.80;99.90;;;;;;5011038;28;20023;-78
2024/01/31 12:21:45;;;;;;;;;;;6.90;99.90;;;;;;5011671;28;20015;-82
2024/01/31 12:24:11;;;;;;;;;;;7.20;99.90;;;;;;5011536;28;19925;-81
2024/01/31 12:26:36;;;;;;;;;;;7.00;99.90;;;;;;5012359;28;19979;-82
2024/01/31 12:29:02;;;;;;;;;;;7.90;99.90;;;;;;5011657;28;20366;-83
2024/01/31 12:31:28;;;;;;;;;;;7.20;99.90;;;;;;5011877;28;19929;-83
2024/01/31 12:33:53;;;;;;;;;;;7.70;99.90;;;;;;5010837;28;19932;-83
2024/01/31 12:36:19;;;;;;;;;;;7.00;99.90;;;;;;5018078;23;19965;-83
2024/01/31 12:38:45;;;;;;;;;;;7.00;99.90;;;;;;4991613;28;20012;-84
2024/01/31 12:41:10;;;;;;;;;;;7.00;99.90;;;;;;4991075;28;20020;-83
2024/01/31 12:43:36;;;;;;;;;;;7.00;99.90;;;;;;4992345;28;19926;-82
2024/01/31 12:46:02;;;;;;;;;;;6.90;99.90;;;;;;4998569;28;20298;-82
2024/01/31 12:48:28;;;;;;;;;;;6.90;99.90;;;;;;5010961;28;20266;-80
2024/01/31 12:50:55;;;;;;;;;;;7.20;99.90;;;;;;5011945;28;19925;-77
2024/01/31 12:53:21;;;;;;;;;;;6.90;99.90;;;;;;5011512;28;19930;-77
2024/01/31 12:55:47;;;;;;;;;;;7.20;99.90;;;;;;5010964;28;20391;-80
2024/01/31 12:58:12;;;;;;;;;;;7.00;99.90;;;;;;5001785;28;19985;-77
2024/01/31 13:00:41;;;;;;;;;;;6.90;99.90;;;;;;4992222;28;19930;-77
2024/01/31 13:03:07;;;;;;;;;;;7.00;99.90;;;;;;4991222;28;19979;-80
2024/01/31 13:05:33;;;;;;;;;;;8.10;99.90;;;;;;4992056;28;20012;-78
2024/01/31 13:07:58;;;;;;;;;;;7.00;99.90;;;;;;4991793;28;20378;-80
2024/01/31 13:10:24;;;;;;;;;;;6.90;99.90;;;;;;4992507;28;19976;-81
2024/01/31 13:12:50;;;;;;;;;;;7.70;99.90;;;;;;4997324;28;19975;-81
2024/01/31 13:15:19;;;;;;;;;;;8.40;99.90;;;;;;5014508;28;19929;-80
2024/01/31 13:17:45;;;;;;;;;;;6.90;99.90;;;;;;5015162;28;20373;-79
2024/01/31 13:20:11;;;;;;;;;;;7.00;99.90;;;;;;5014943;28;20043;-79
2024/01/31 13:22:37;;;;;;;;;;;6.90;99.90;;;;;;5014471;28;19987;-80
2024/01/31 13:25:04;;;;;;;;;;;8.10;99.90;;;;;;5014764;28;19932;-79
2024/01/31 13:27:30;;;;;;;;;;;6.70;99.90;;;;;;5014752;28;20384;-78
2024/01/31 13:29:55;;;;;;;;;;;6.70;99.90;;;;;;5014242;28;20041;-79
2024/01/31 13:32:21;;;;;;;;;;;6.70;99.90;;;;;;5018680;28;19929;-80
2024/01/31 13:34:46;;;;;;;;;;;7.40;99.90;;;;;;5021422;28;20274;-77
2024/01/31 13:37:15;;;;;;;;;;;6.70;99.90;;;;;;5013677;28;19932;-78
2024/01/31 13:39:40;;;;;;;;;;;6.70;99.90;;;;;;5014327;28;20075;-78
2024/01/31 13:42:06;;;;;;;;;;;6.60;99.90;;;;;;5014576;28;19992;-78
2024/01/31 13:44:31;;;;;;;;;;;6.60;99.90;;;;;;5014045;28;20039;-78
2024/01/31 13:46:57;;;;;;;;;;;7.10;99.90;;;;;;5015974;28;19925;-78
2024/01/31 13:49:22;;;;;;;;;;;6.50;99.90;;;;;;5015461;28;19933;-78
2024/01/31 13:51:48;;;;;;;;;;;6.60;99.90;;;;;;5013825;28;20373;-78
2024/01/31 13:54:15;;;;;;;;;;;6.60;99.90;;;;;;5014453;28;19972;-78
2024/01/31 13:56:40;;;;;;;;;;;7.10;99.90;;;;;;5014331;28;20439;-78
2024/01/31 13:59:09;;;;;;;;;;;6.60;99.90;;;;;;5013535;28;19926;-78
2024/01/31 14:01:34;;;;;;;;;;;6.60;99.90;;;;;;5015041;28;20460;-78
2024/01/31 14:04:00;;;;;;;;;;;6.70;99.90;;;;;;5014400;28;20350;-78
2024/01/31 14:06:26;;;;;;;;;;;7.40;99.90;;;;;;5013317;28;19965;-78
2024/01/31 14:08:51;;;;;;;;;;;6.60;99.90;;;;;;5014031;28;19925;-78
2024/01/31 14:11:19;;;;;;;;;;;6.60;99.90;;;;;;5014011;28;20432;-78
2024/01/31 14:13:46;;;;;;;;;;;6.80;99.90;;;;;;5013377;28;20392;-78
2024/01/31 14:16:12;;;;;;;;;;;6.90;99.90;;;;;;5013662;28;19936;-78
2024/01/31 14:18:37;;;;;;;;;;;6.70;99.90;;;;;;5013196;28;19968;-78
2024/01/31 14:21:03;;;;;;;;;;;7.70;99.90;;;;;;5013101;28;20411;-78
2024/01/31 14:23:28;;;;;;;;;;;6.80;99.90;;;;;;5012533;28;19929;-78